createdAt,value
2023-05-05T00:00:45.742Z,14.31
2023-05-05T00:01:45.724Z,14.30
2023-05-05T00:02:45.842Z,14.34
2023-05-05T00:03:45.788Z,14.27
2023-05-05T00:04:45.656Z,14.27
2023-05-05T00:05:45.642Z,14.27
2023-05-05T00:06:45.628Z,14.35
2023-05-05T00:07:45.614Z,14.16
2023-05-05T00:08:45.622Z,14.24
2023-05-05T00:09:45.589Z,14.20
2023-05-05T00:10:45.574Z,14.20
2023-05-05T00:11:45.586Z,14.16
2023-05-05T00:12:45.626Z,14.16
2023-05-05T00:13:45.533Z,14.13
2023-05-05T00:14:45.534Z,14.05
2023-05-05T00:15:45.504Z,14.06
2023-05-05T00:16:45.582Z,13.98
2023-05-05T00:17:45.486Z,13.88
2023-05-05T00:18:45.465Z,13.88
2023-05-05T00:19:45.448Z,13.88
2023-05-05T00:20:45.433Z,13.86
2023-05-05T00:21:45.414Z,14.02
2023-05-05T00:22:45.416Z,13.96
2023-05-05T00:23:45.386Z,13.98
2023-05-05T00:24:45.373Z,13.91
2023-05-05T00:25:45.362Z,13.96
2023-05-05T00:26:45.350Z,13.86
2023-05-05T00:27:45.343Z,13.91
2023-05-05T00:28:45.319Z,13.83
2023-05-05T00:29:45.305Z,13.99
2023-05-05T00:30:45.297Z,13.86
2023-05-05T00:31:45.278Z,13.87
2023-05-05T00:32:45.346Z,13.86
2023-05-05T00:33:45.253Z,13.87
2023-05-05T00:34:45.244Z,13.91
2023-05-05T00:35:45.222Z,13.91
2023-05-05T00:36:45.216Z,13.83
2023-05-05T00:37:45.207Z,13.88
2023-05-05T00:38:45.190Z,13.84
2023-05-05T00:39:45.185Z,13.83
2023-05-05T00:40:45.163Z,13.83
2023-05-05T00:41:45.152Z,13.88
2023-05-05T00:42:45.139Z,13.80
2023-05-05T00:43:45.119Z,13.81
2023-05-05T00:44:45.113Z,13.80
2023-05-05T00:45:45.101Z,13.79
2023-05-05T00:46:45.127Z,13.76
2023-05-05T00:47:45.116Z,13.76
2023-05-05T00:48:45.079Z,13.69
2023-05-05T00:49:45.034Z,13.73
2023-05-05T00:50:45.035Z,13.68
2023-05-05T00:51:45.013Z,13.65
2023-05-05T00:52:44.997Z,13.69
2023-05-05T00:53:44.981Z,13.72
2023-05-05T00:54:44.968Z,13.59
2023-05-05T00:55:44.953Z,13.63
2023-05-05T00:56:44.940Z,13.55
2023-05-05T00:57:45.141Z,13.53
2023-05-05T00:58:44.929Z,13.63
2023-05-05T00:59:44.911Z,13.61
2023-05-05T01:00:44.891Z,13.62
2023-05-05T01:01:44.919Z,13.59
2023-05-05T01:02:44.971Z,13.61
2023-05-05T01:03:44.981Z,13.51
2023-05-05T01:04:44.857Z,13.55
2023-05-05T01:05:44.841Z,13.57
2023-05-05T01:06:44.810Z,13.55
2023-05-05T01:07:44.795Z,13.55
2023-05-05T01:08:44.777Z,13.53
2023-05-05T01:09:44.762Z,13.50
2023-05-05T01:10:44.752Z,13.55
2023-05-05T01:11:44.746Z,13.46
2023-05-05T01:12:44.769Z,13.47
2023-05-05T01:13:44.711Z,13.46
2023-05-05T01:14:44.699Z,13.47
2023-05-05T01:15:44.687Z,13.43
2023-05-05T01:16:44.700Z,13.25
2023-05-05T01:17:44.665Z,13.24
2023-05-05T01:18:44.643Z,13.16
2023-05-05T01:19:44.640Z,13.29
2023-05-05T01:20:44.641Z,13.17
2023-05-05T01:21:44.604Z,13.17
2023-05-05T01:22:44.585Z,13.19
2023-05-05T01:23:44.579Z,13.13
2023-05-05T01:24:44.568Z,13.16
2023-05-05T01:25:44.552Z,13.14
2023-05-05T01:26:44.539Z,13.22
2023-05-05T01:27:44.525Z,13.16
2023-05-05T01:28:44.514Z,13.13
2023-05-05T01:29:44.498Z,13.10
2023-05-05T01:30:44.492Z,13.10
2023-05-05T01:31:44.505Z,13.07
2023-05-05T01:32:44.498Z,13.12
2023-05-05T01:33:44.448Z,13.10
2023-05-05T01:34:44.437Z,13.09
2023-05-05T01:35:44.621Z,13.09
2023-05-05T01:36:44.457Z,13.14
2023-05-05T01:37:44.385Z,13.12
2023-05-05T01:38:44.372Z,13.06
2023-05-05T01:39:44.361Z,13.09
2023-05-05T01:40:44.352Z,13.04
2023-05-05T01:41:44.343Z,13.04
2023-05-05T01:42:44.328Z,12.99
2023-05-05T01:43:44.313Z,12.96
2023-05-05T01:44:44.446Z,12.85
2023-05-05T01:45:44.363Z,12.85
2023-05-05T01:46:44.270Z,12.85
2023-05-05T01:47:44.283Z,12.84
2023-05-05T01:48:44.242Z,12.81
2023-05-05T01:49:44.236Z,12.84
2023-05-05T01:50:44.217Z,12.85
2023-05-05T01:51:44.218Z,12.87
2023-05-05T01:52:44.210Z,12.89
2023-05-05T01:53:44.183Z,12.79
2023-05-05T01:54:44.562Z,12.89
2023-05-05T01:55:44.148Z,12.81
2023-05-05T01:56:44.146Z,12.81
2023-05-05T01:57:44.122Z,12.71
2023-05-05T01:58:44.455Z,12.77
2023-05-05T01:59:44.093Z,12.79
2023-05-05T02:00:44.112Z,12.77
2023-05-05T02:01:44.105Z,12.73
2023-05-05T02:02:44.137Z,12.76
2023-05-05T02:03:44.487Z,12.70
2023-05-05T02:04:44.020Z,12.66
2023-05-05T02:05:44.009Z,12.69
2023-05-05T02:06:44.393Z,12.70
2023-05-05T02:07:43.981Z,12.63
2023-05-05T02:08:43.993Z,12.73
2023-05-05T02:09:43.971Z,12.85
2023-05-05T02:10:43.941Z,12.73
2023-05-05T02:11:43.929Z,12.74
2023-05-05T02:12:43.939Z,12.67
2023-05-05T02:13:43.974Z,12.73
2023-05-05T02:14:43.888Z,12.71
2023-05-05T02:15:43.923Z,12.74
2023-05-05T02:16:44.059Z,12.79
2023-05-05T02:17:43.892Z,12.73
2023-05-05T02:18:43.841Z,12.55
2023-05-05T02:19:43.833Z,12.66
2023-05-05T02:20:43.804Z,12.66
2023-05-05T02:21:43.789Z,12.56
2023-05-05T02:22:43.776Z,12.46
2023-05-05T02:23:43.768Z,12.56
2023-05-05T02:24:43.782Z,12.56
2023-05-05T02:25:43.755Z,12.62
2023-05-05T02:26:43.729Z,12.58
2023-05-05T02:27:43.716Z,12.55
2023-05-05T02:28:43.696Z,12.52
2023-05-05T02:29:43.682Z,12.49
2023-05-05T02:30:43.745Z,12.59
2023-05-05T02:31:43.688Z,12.41
2023-05-05T02:32:43.656Z,12.48
2023-05-05T02:33:43.636Z,12.46
2023-05-05T02:34:43.622Z,12.52
2023-05-05T02:35:43.609Z,12.54
2023-05-05T02:36:43.591Z,12.56
2023-05-05T02:37:43.577Z,12.55
2023-05-05T02:38:43.559Z,12.62
2023-05-05T02:39:43.571Z,12.69
2023-05-05T02:40:43.566Z,12.63
2023-05-05T02:41:43.526Z,12.63
2023-05-05T02:42:43.527Z,12.58
2023-05-05T02:43:43.497Z,12.61
2023-05-05T02:44:43.488Z,12.61
2023-05-05T02:45:43.475Z,12.67
2023-05-05T02:46:43.531Z,12.63
2023-05-05T02:47:43.520Z,12.66
2023-05-05T02:48:43.422Z,12.61
2023-05-05T02:49:43.516Z,12.70
2023-05-05T02:50:43.401Z,12.61
2023-05-05T02:51:43.451Z,12.61
2023-05-05T02:52:43.384Z,12.67
2023-05-05T02:53:43.460Z,12.59
2023-05-05T02:54:43.351Z,12.67
2023-05-05T02:55:43.384Z,12.63
2023-05-05T02:56:43.352Z,12.59
2023-05-05T02:57:43.300Z,12.66
2023-05-05T02:58:43.283Z,12.56
2023-05-05T02:59:43.276Z,12.62
2023-05-05T03:00:43.274Z,12.55
2023-05-05T03:01:43.397Z,12.52
2023-05-05T03:02:43.688Z,12.51
2023-05-05T03:03:43.263Z,12.48
2023-05-05T03:04:43.556Z,12.48
2023-05-05T03:05:43.202Z,12.52
2023-05-05T03:06:43.180Z,12.46
2023-05-05T03:07:43.171Z,12.38
2023-05-05T03:08:43.154Z,12.51
2023-05-05T03:09:43.148Z,12.48
2023-05-05T03:10:43.133Z,12.33
2023-05-05T03:11:43.114Z,12.43
2023-05-05T03:12:43.174Z,12.37
2023-05-05T03:13:43.086Z,12.31
2023-05-05T03:14:43.076Z,12.36
2023-05-05T03:15:43.071Z,12.41
2023-05-05T03:16:43.053Z,12.31
2023-05-05T03:17:43.127Z,12.34
2023-05-05T03:18:43.013Z,12.34
2023-05-05T03:19:43.004Z,12.41
2023-05-05T03:20:42.989Z,12.43
2023-05-05T03:21:42.987Z,12.40
2023-05-05T03:22:42.965Z,12.43
2023-05-05T03:23:42.955Z,12.36
2023-05-05T03:24:42.936Z,12.36
2023-05-05T03:25:42.921Z,12.43
2023-05-05T03:26:42.921Z,12.44
2023-05-05T03:27:42.893Z,12.41
2023-05-05T03:28:42.900Z,12.49
2023-05-05T03:29:42.863Z,12.44
2023-05-05T03:30:42.853Z,12.41
2023-05-05T03:31:42.864Z,12.44
2023-05-05T03:32:42.886Z,12.44
2023-05-05T03:33:42.811Z,12.41
2023-05-05T03:34:42.807Z,12.36
2023-05-05T03:35:42.794Z,12.34
2023-05-05T03:36:42.763Z,12.30
2023-05-05T03:37:42.754Z,12.31
2023-05-05T03:38:42.744Z,12.25
2023-05-05T03:39:42.726Z,12.40
2023-05-05T03:40:44.534Z,12.40
2023-05-05T03:41:42.704Z,12.33
2023-05-05T03:42:42.682Z,12.38
2023-05-05T03:43:42.668Z,12.43
2023-05-05T03:44:42.693Z,12.37
2023-05-05T03:45:42.661Z,12.36
2023-05-05T03:46:42.631Z,12.36
2023-05-05T03:47:42.685Z,12.29
2023-05-05T03:48:42.606Z,12.26
2023-05-05T03:49:42.594Z,12.34
2023-05-05T03:50:42.579Z,12.37
2023-05-05T03:51:42.570Z,12.29
2023-05-05T03:52:42.548Z,12.34
2023-05-05T03:53:42.547Z,12.34
2023-05-05T03:54:42.521Z,12.34
2023-05-05T03:55:42.511Z,12.40
2023-05-05T03:56:42.499Z,12.40
2023-05-05T03:57:42.487Z,12.30
2023-05-05T03:58:42.503Z,12.31
2023-05-05T03:59:42.465Z,12.40
2023-05-05T04:00:42.486Z,12.36
2023-05-05T04:01:42.430Z,12.33
2023-05-05T04:02:42.521Z,12.34
2023-05-05T04:03:42.447Z,12.38
2023-05-05T04:04:42.392Z,12.37
2023-05-05T04:05:42.380Z,12.40
2023-05-05T04:06:42.361Z,12.43
2023-05-05T04:07:42.345Z,12.44
2023-05-05T04:08:42.334Z,12.44
2023-05-05T04:09:42.323Z,12.41
2023-05-05T04:10:42.312Z,12.49
2023-05-05T04:11:42.296Z,12.44
2023-05-05T04:12:42.355Z,12.48
2023-05-05T04:13:42.274Z,12.43
2023-05-05T04:14:42.255Z,12.52
2023-05-05T04:15:42.281Z,12.44
2023-05-05T04:16:42.254Z,12.48
2023-05-05T04:17:42.259Z,12.49
2023-05-05T04:18:42.198Z,12.51
2023-05-05T04:19:42.189Z,12.59
2023-05-05T04:20:42.173Z,12.55
2023-05-05T04:21:42.160Z,12.52
2023-05-05T04:22:42.140Z,12.48
2023-05-05T04:23:42.130Z,12.33
2023-05-05T04:24:42.124Z,12.46
2023-05-05T04:25:42.106Z,12.48
2023-05-05T04:26:42.095Z,12.43
2023-05-05T04:27:42.086Z,12.41
2023-05-05T04:28:42.068Z,12.51
2023-05-05T04:29:42.053Z,12.48
2023-05-05T04:30:42.050Z,12.43
2023-05-05T04:31:42.563Z,12.44
2023-05-05T04:32:42.074Z,12.48
2023-05-05T04:33:41.991Z,12.52
2023-05-05T04:34:41.977Z,12.52
2023-05-05T04:35:41.965Z,12.63
2023-05-05T04:36:41.955Z,12.46
2023-05-05T04:37:41.947Z,12.56
2023-05-05T04:38:41.967Z,12.49
2023-05-05T04:39:41.913Z,12.59
2023-05-05T04:40:41.912Z,12.52
2023-05-05T04:41:41.882Z,12.52
2023-05-05T04:42:41.868Z,12.51
2023-05-05T04:43:41.854Z,12.52
2023-05-05T04:44:41.839Z,12.54
2023-05-05T04:45:41.827Z,12.49
2023-05-05T04:46:41.822Z,12.48
2023-05-05T04:47:41.909Z,12.49
2023-05-05T04:48:41.806Z,12.51
2023-05-05T04:49:41.788Z,12.63
2023-05-05T04:50:41.768Z,12.58
2023-05-05T04:51:41.751Z,12.62
2023-05-05T04:52:41.734Z,12.69
2023-05-05T04:53:41.720Z,12.66
2023-05-05T04:54:41.707Z,12.66
2023-05-05T04:55:41.705Z,12.70
2023-05-05T04:56:41.725Z,12.73
2023-05-05T04:57:41.666Z,12.79
2023-05-05T04:58:41.648Z,12.71
2023-05-05T04:59:41.639Z,12.91
2023-05-05T05:00:41.626Z,12.84
2023-05-05T05:01:41.663Z,12.84
2023-05-05T05:02:41.698Z,12.81
2023-05-05T05:03:41.740Z,12.85
2023-05-05T05:04:41.659Z,12.85
2023-05-05T05:05:41.567Z,12.85
2023-05-05T05:06:41.547Z,12.92
2023-05-05T05:07:41.540Z,12.91
2023-05-05T05:08:41.511Z,12.87
2023-05-05T05:09:41.601Z,12.95
2023-05-05T05:10:41.497Z,12.91
2023-05-05T05:11:41.472Z,12.88
2023-05-05T05:12:41.651Z,12.89
2023-05-05T05:13:41.447Z,12.91
2023-05-05T05:14:41.436Z,12.89
2023-05-05T05:15:41.668Z,12.94
2023-05-05T05:16:41.456Z,12.99
2023-05-05T05:17:41.426Z,12.98
2023-05-05T05:18:41.524Z,13.01
2023-05-05T05:19:41.361Z,13.07
2023-05-05T05:20:41.406Z,13.12
2023-05-05T05:21:41.687Z,13.16
2023-05-05T05:22:41.332Z,13.22
2023-05-05T05:23:41.315Z,13.10
2023-05-05T05:24:41.296Z,13.24
2023-05-05T05:25:41.292Z,13.31
2023-05-05T05:26:41.274Z,13.29
2023-05-05T05:27:41.254Z,13.35
2023-05-05T05:28:41.248Z,13.35
2023-05-05T05:29:41.232Z,13.35
2023-05-05T05:30:41.219Z,13.44
2023-05-05T05:31:41.244Z,13.35
2023-05-05T05:32:41.213Z,13.27
2023-05-05T05:33:41.168Z,13.50
2023-05-05T05:34:41.157Z,13.51
2023-05-05T05:35:41.175Z,13.53
2023-05-05T05:36:41.166Z,13.48
2023-05-05T05:37:41.131Z,13.59
2023-05-05T05:38:41.113Z,13.51
2023-05-05T05:39:43.186Z,13.72
2023-05-05T05:40:41.099Z,13.79
2023-05-05T05:41:41.064Z,13.93
2023-05-05T05:42:41.050Z,13.88
2023-05-05T05:43:41.040Z,13.99
2023-05-05T05:44:41.028Z,14.04
2023-05-05T05:45:41.052Z,14.12
2023-05-05T05:46:41.063Z,14.17
2023-05-05T05:47:41.022Z,14.13
2023-05-05T05:48:40.973Z,14.24
2023-05-05T05:49:40.953Z,14.16
2023-05-05T05:50:40.937Z,14.17
2023-05-05T05:51:40.924Z,14.29
2023-05-05T05:52:40.937Z,14.35
2023-05-05T05:53:40.912Z,14.42
2023-05-05T05:54:40.892Z,14.36
2023-05-05T05:55:40.875Z,14.44
2023-05-05T05:56:40.862Z,14.46
2023-05-05T05:57:40.854Z,14.59
2023-05-05T05:58:40.837Z,14.85
2023-05-05T05:59:40.828Z,14.93
2023-05-05T06:00:40.814Z,15.11
2023-05-05T06:01:40.788Z,15.27
2023-05-05T06:02:40.848Z,15.48
2023-05-05T06:03:40.908Z,15.60
2023-05-05T06:04:40.930Z,15.71
2023-05-05T06:05:40.734Z,15.84
2023-05-05T06:06:40.725Z,15.80
2023-05-05T06:07:40.725Z,16.04
2023-05-05T06:08:40.724Z,16.26
2023-05-05T06:09:40.877Z,16.33
2023-05-05T06:10:40.664Z,16.59
2023-05-05T06:11:40.649Z,16.72
2023-05-05T06:12:40.667Z,16.95
2023-05-05T06:13:40.625Z,16.99
2023-05-05T06:14:40.620Z,17.09
2023-05-05T06:15:40.622Z,17.27
2023-05-05T06:16:40.583Z,17.38
2023-05-05T06:17:40.586Z,17.65
2023-05-05T06:18:40.556Z,17.89
2023-05-05T06:19:40.544Z,18.04
2023-05-05T06:20:40.534Z,18.17
2023-05-05T06:21:40.518Z,18.36
2023-05-05T06:22:40.528Z,18.53
2023-05-05T06:23:40.502Z,18.62
2023-05-05T06:24:40.495Z,18.57
2023-05-05T06:25:40.457Z,18.59
2023-05-05T06:26:40.444Z,18.51
2023-05-05T06:27:40.434Z,18.69
2023-05-05T06:28:40.424Z,18.54
2023-05-05T06:29:40.416Z,18.46
2023-05-05T06:30:40.401Z,18.46
2023-05-05T06:31:40.452Z,18.42
2023-05-05T06:32:40.438Z,18.44
2023-05-05T06:33:40.358Z,18.44
2023-05-05T06:34:40.350Z,18.34
2023-05-05T06:35:40.343Z,18.20
2023-05-05T06:36:40.423Z,18.13
2023-05-05T06:37:40.309Z,18.09
2023-05-05T06:38:40.293Z,18.10
2023-05-05T06:39:40.275Z,18.04
2023-05-05T06:40:40.288Z,18.11
2023-05-05T06:41:40.251Z,18.04
2023-05-05T06:42:40.245Z,18.07
2023-05-05T06:43:40.229Z,18.04
2023-05-05T06:44:40.223Z,18.01
2023-05-05T06:45:40.778Z,17.95
2023-05-05T06:46:40.211Z,17.86
2023-05-05T06:47:40.246Z,17.81
2023-05-05T06:48:40.157Z,17.84
2023-05-05T06:49:40.137Z,17.79
2023-05-05T06:50:40.128Z,17.87
2023-05-05T06:51:42.204Z,18.02
2023-05-05T06:52:40.103Z,18.14
2023-05-05T06:53:40.088Z,18.21
2023-05-05T06:54:40.094Z,18.20
2023-05-05T06:55:40.064Z,18.32
2023-05-05T06:56:40.144Z,18.36
2023-05-05T06:57:40.033Z,18.60
2023-05-05T06:58:40.028Z,18.78
2023-05-05T06:59:40.011Z,18.91
2023-05-05T07:00:40.013Z,18.91
2023-05-05T07:01:39.988Z,19.01
2023-05-05T07:02:40.151Z,19.17
2023-05-05T07:03:39.970Z,19.35
2023-05-05T07:04:39.952Z,19.47
2023-05-05T07:05:39.935Z,19.57
2023-05-05T07:06:39.926Z,19.50
2023-05-05T07:07:39.906Z,19.49
2023-05-05T07:08:39.894Z,19.43
2023-05-05T07:09:39.876Z,19.30
2023-05-05T07:10:39.873Z,19.23
2023-05-05T07:11:39.850Z,19.20
2023-05-05T07:12:39.948Z,19.06
2023-05-05T07:13:40.035Z,19.12
2023-05-05T07:14:39.808Z,19.07
2023-05-05T07:15:39.844Z,18.96
2023-05-05T07:16:39.842Z,18.90
2023-05-05T07:17:39.799Z,18.84
2023-05-05T07:18:39.769Z,18.76
2023-05-05T07:19:39.748Z,18.62
2023-05-05T07:20:39.726Z,18.76
2023-05-05T07:21:39.725Z,18.71
2023-05-05T07:22:39.733Z,18.71
2023-05-05T07:23:39.690Z,18.69
2023-05-05T07:24:39.679Z,18.56
2023-05-05T07:25:39.665Z,18.51
2023-05-05T07:26:39.647Z,18.57
2023-05-05T07:27:39.632Z,18.53
2023-05-05T07:28:39.810Z,18.50
2023-05-05T07:29:39.615Z,18.44
2023-05-05T07:30:39.609Z,18.42
2023-05-05T07:31:39.671Z,18.49
2023-05-05T07:32:39.619Z,18.31
2023-05-05T07:33:39.562Z,18.28
2023-05-05T07:34:39.549Z,18.17
2023-05-05T07:35:39.535Z,18.20
2023-05-05T07:36:39.520Z,18.23
2023-05-05T07:37:39.501Z,18.19
2023-05-05T07:38:39.493Z,18.04
2023-05-05T07:39:39.477Z,18.11
2023-05-05T07:40:39.457Z,18.09
2023-05-05T07:41:39.445Z,18.01
2023-05-05T07:42:39.435Z,18.09
2023-05-05T07:43:39.705Z,18.01
2023-05-05T07:44:39.520Z,18.07
2023-05-05T07:45:39.440Z,18.02
2023-05-05T07:46:39.380Z,18.05
2023-05-05T07:47:39.461Z,17.92
2023-05-05T07:48:39.500Z,17.99
2023-05-05T07:49:39.333Z,17.96
2023-05-05T07:50:39.335Z,17.99
2023-05-05T07:51:39.317Z,17.98
2023-05-05T07:53:39.282Z,17.87
2023-05-05T07:54:39.287Z,17.91
2023-05-05T07:55:39.260Z,17.87
2023-05-05T07:56:39.250Z,17.98
2023-05-05T07:57:39.228Z,17.83
2023-05-05T07:58:39.216Z,17.89
2023-05-05T07:59:39.199Z,17.87
2023-05-05T08:00:39.313Z,17.79
2023-05-05T08:01:39.189Z,17.80
2023-05-05T08:02:39.300Z,17.91
2023-05-05T08:03:39.310Z,17.74
2023-05-05T08:04:39.160Z,17.74
2023-05-05T08:05:39.119Z,17.76
2023-05-05T08:06:39.101Z,17.73
2023-05-05T08:07:39.092Z,17.68
2023-05-05T08:08:39.082Z,17.70
2023-05-05T08:09:39.068Z,17.73
2023-05-05T08:10:39.054Z,17.71
2023-05-05T08:11:39.045Z,17.70
2023-05-05T08:12:39.120Z,17.63
2023-05-05T08:13:39.015Z,17.63
2023-05-05T08:14:39.024Z,17.63
2023-05-05T08:15:39.049Z,17.71
2023-05-05T08:16:39.070Z,17.63
2023-05-05T08:17:38.984Z,17.68
2023-05-05T08:18:38.944Z,17.62
2023-05-05T08:19:38.929Z,17.66
2023-05-05T08:20:38.925Z,17.74
2023-05-05T08:21:38.910Z,17.70
2023-05-05T08:22:38.899Z,17.71
2023-05-05T08:23:38.891Z,17.91
2023-05-05T08:24:38.869Z,17.83
2023-05-05T08:25:38.852Z,17.94
2023-05-05T08:26:38.841Z,17.98
2023-05-05T08:27:38.822Z,17.86
2023-05-05T08:28:38.826Z,17.92
2023-05-05T08:29:38.793Z,17.87
2023-05-05T08:30:38.802Z,17.95
2023-05-05T08:31:38.940Z,17.84
2023-05-05T08:32:38.976Z,17.92
2023-05-05T08:33:38.748Z,17.98
2023-05-05T08:34:38.834Z,18.05
2023-05-05T08:35:38.725Z,17.96
2023-05-05T08:36:38.857Z,18.09
2023-05-05T08:37:38.692Z,18.05
2023-05-05T08:38:38.681Z,18.05
2023-05-05T08:39:38.670Z,18.11
2023-05-05T08:40:38.658Z,18.04
2023-05-05T08:41:38.636Z,18.09
2023-05-05T08:42:39.583Z,18.05
2023-05-05T08:43:38.610Z,18.11
2023-05-05T08:44:38.605Z,18.10
2023-05-05T08:45:38.591Z,18.09
2023-05-05T08:46:38.884Z,18.11
2023-05-05T08:48:38.654Z,17.94
2023-05-05T08:49:38.569Z,18.05
2023-05-05T08:50:38.520Z,18.10
2023-05-05T08:51:38.503Z,18.13
2023-05-05T08:52:38.528Z,18.23
2023-05-05T08:53:38.477Z,18.14
2023-05-05T08:54:38.463Z,18.26
2023-05-05T08:55:38.442Z,18.29
2023-05-05T08:56:38.436Z,18.23
2023-05-05T08:57:38.429Z,18.44
2023-05-05T08:58:38.415Z,18.44
2023-05-05T08:59:38.404Z,18.49
2023-05-05T09:00:38.445Z,18.51
2023-05-05T09:01:38.441Z,18.60
2023-05-05T09:02:38.464Z,18.68
2023-05-05T09:03:38.409Z,18.74
2023-05-05T09:04:38.418Z,18.75
2023-05-05T09:05:38.311Z,18.86
2023-05-05T09:06:38.306Z,18.82
2023-05-05T09:07:38.280Z,18.90
2023-05-05T09:08:38.270Z,18.96
2023-05-05T09:09:38.253Z,18.96
2023-05-05T09:10:38.241Z,18.96
2023-05-05T09:11:38.226Z,19.24
2023-05-05T09:12:38.226Z,19.24
2023-05-05T09:13:38.201Z,19.27
2023-05-05T09:14:38.199Z,19.30
2023-05-05T09:15:38.177Z,19.35
2023-05-05T09:16:38.258Z,19.34
2023-05-05T09:17:38.220Z,19.42
2023-05-05T09:18:38.140Z,19.49
2023-05-05T09:19:38.121Z,19.60
2023-05-05T09:20:38.553Z,19.61
2023-05-05T09:21:38.113Z,19.75
2023-05-05T09:22:38.083Z,19.89
2023-05-05T09:23:38.065Z,20.20
2023-05-05T09:24:38.053Z,20.51
2023-05-05T09:25:38.041Z,21.13
2023-05-05T09:26:38.025Z,21.66
2023-05-05T09:27:38.016Z,22.08
2023-05-05T09:28:38.020Z,22.11
2023-05-05T09:29:38.016Z,22.09
2023-05-05T09:30:38.015Z,22.06
2023-05-05T09:31:38.016Z,22.17
2023-05-05T09:32:37.989Z,22.46
2023-05-05T09:33:37.946Z,22.89
2023-05-05T09:34:37.930Z,23.03
2023-05-05T09:35:37.919Z,22.99
2023-05-05T09:36:38.117Z,23.25
2023-05-05T09:37:37.888Z,23.67
2023-05-05T09:38:37.873Z,24.04
2023-05-05T09:39:37.859Z,24.33
2023-05-05T09:40:37.842Z,24.61
2023-05-05T09:41:37.837Z,24.70
2023-05-05T09:42:37.837Z,24.56
2023-05-05T09:43:37.808Z,24.55
2023-05-05T09:44:37.794Z,24.60
2023-05-05T09:45:37.783Z,24.87
2023-05-05T09:46:37.790Z,25.07
2023-05-05T09:47:37.891Z,25.35
2023-05-05T09:48:37.745Z,25.48
2023-05-05T09:49:37.734Z,25.56
2023-05-05T09:50:37.723Z,25.45
2023-05-05T09:51:37.714Z,25.31
2023-05-05T09:52:37.762Z,25.48
2023-05-05T09:53:37.678Z,25.44
2023-05-05T09:54:37.675Z,25.29
2023-05-05T09:55:37.673Z,25.17
2023-05-05T09:56:37.640Z,24.92
2023-05-05T09:57:37.628Z,24.75
2023-05-05T09:58:37.766Z,24.39
2023-05-05T09:59:37.609Z,24.09
2023-05-05T10:00:37.587Z,23.87
2023-05-05T10:01:37.691Z,23.64
2023-05-05T10:02:37.568Z,23.56
2023-05-05T10:03:37.549Z,23.38
2023-05-05T10:04:37.570Z,23.15
2023-05-05T10:05:37.520Z,23.01
2023-05-05T10:06:37.509Z,22.85
2023-05-05T10:07:37.496Z,22.85
2023-05-05T10:08:37.576Z,22.78
2023-05-05T10:09:37.490Z,22.69
2023-05-05T10:10:37.468Z,22.76
2023-05-05T10:11:37.455Z,22.57
2023-05-05T10:12:37.829Z,22.41
2023-05-05T10:13:37.419Z,22.36
2023-05-05T10:14:37.409Z,22.24
2023-05-05T10:15:37.398Z,22.19
2023-05-05T10:16:37.428Z,22.11
2023-05-05T10:17:37.411Z,22.21
2023-05-05T10:18:37.380Z,22.26
2023-05-05T10:19:37.343Z,22.19
2023-05-05T10:20:37.343Z,22.11
2023-05-05T10:21:37.315Z,22.02
2023-05-05T10:22:37.298Z,22.01
2023-05-05T10:23:37.284Z,21.96
2023-05-05T10:24:37.318Z,21.83
2023-05-05T10:25:37.265Z,21.85
2023-05-05T10:26:37.249Z,21.81
2023-05-05T10:27:37.238Z,21.93
2023-05-05T10:28:37.233Z,21.82
2023-05-05T10:29:37.216Z,21.86
2023-05-05T10:30:37.204Z,21.79
2023-05-05T10:31:37.231Z,21.91
2023-05-05T10:32:56.403Z,21.83
2023-05-05T10:33:38.317Z,21.83
2023-05-05T10:34:37.177Z,21.85
2023-05-05T10:35:37.141Z,21.96
2023-05-05T10:36:37.122Z,22.04
2023-05-05T10:37:37.130Z,22.05
2023-05-05T10:38:37.099Z,22.15
2023-05-05T10:39:37.091Z,22.17
2023-05-05T10:40:37.168Z,22.08
2023-05-05T10:41:37.055Z,22.06
2023-05-05T10:42:37.053Z,22.02
2023-05-05T10:43:37.039Z,22.05
2023-05-05T10:44:37.025Z,22.02
2023-05-05T10:45:37.049Z,22.05
2023-05-05T10:46:37.191Z,21.99
2023-05-05T10:47:37.025Z,21.94
2023-05-05T10:48:36.976Z,21.82
2023-05-05T10:49:36.961Z,21.70
2023-05-05T10:50:36.961Z,21.79
2023-05-05T10:51:40.424Z,21.83
2023-05-05T10:52:36.910Z,21.82
2023-05-05T10:53:36.900Z,21.81
2023-05-05T10:54:38.321Z,21.89
2023-05-05T10:55:36.881Z,21.86
2023-05-05T10:56:37.154Z,21.94
2023-05-05T10:57:36.845Z,21.98
2023-05-05T10:58:44.116Z,21.89
2023-05-05T10:59:38.193Z,21.89
2023-05-05T11:00:36.808Z,21.91
2023-05-05T11:01:36.877Z,22.04
2023-05-05T11:02:37.099Z,22.08
2023-05-05T11:03:36.791Z,22.21
2023-05-05T11:04:36.746Z,22.51
2023-05-05T11:05:36.745Z,22.48
2023-05-05T11:06:36.743Z,22.45
2023-05-05T11:07:36.812Z,22.46
2023-05-05T11:08:36.695Z,22.44
2023-05-05T11:09:36.682Z,22.59
2023-05-05T11:10:36.667Z,22.57
2023-05-05T11:11:36.654Z,22.54
2023-05-05T11:12:38.847Z,22.52
2023-05-05T11:13:36.634Z,22.56
2023-05-05T11:14:36.621Z,22.63
2023-05-05T11:15:36.610Z,22.67
2023-05-05T11:16:36.628Z,22.64
2023-05-05T11:17:36.596Z,22.79
2023-05-05T11:18:36.605Z,22.69
2023-05-05T11:19:36.558Z,22.78
2023-05-05T11:20:36.532Z,22.72
2023-05-05T11:21:36.526Z,22.78
2023-05-05T11:22:36.509Z,22.57
2023-05-05T11:23:36.498Z,22.49
2023-05-05T11:24:36.487Z,22.52
2023-05-05T11:25:36.919Z,22.59
2023-05-05T11:26:36.473Z,22.64
2023-05-05T11:27:36.459Z,22.91
2023-05-05T11:28:36.582Z,23.07
2023-05-05T11:29:36.428Z,23.19
2023-05-05T11:30:36.415Z,23.32
2023-05-05T11:31:36.449Z,23.54
2023-05-05T11:32:36.432Z,23.56
2023-05-05T11:33:36.373Z,23.71
2023-05-05T11:34:36.363Z,23.90
2023-05-05T11:35:36.351Z,24.05
2023-05-05T11:36:36.332Z,24.00
2023-05-05T11:37:36.314Z,24.15
2023-05-05T11:38:36.320Z,24.16
2023-05-05T11:39:36.296Z,24.00
2023-05-05T11:40:36.280Z,24.05
2023-05-05T11:41:36.263Z,24.29
2023-05-05T11:42:36.252Z,24.52
2023-05-05T11:43:36.241Z,24.74
2023-05-05T11:44:36.253Z,24.87
2023-05-05T11:45:36.213Z,24.89
2023-05-05T11:46:36.353Z,24.77
2023-05-05T11:47:36.200Z,24.53
2023-05-05T11:48:36.204Z,24.36
2023-05-05T11:49:36.170Z,24.12
2023-05-05T11:50:36.150Z,24.00
2023-05-05T11:51:36.140Z,24.12
2023-05-05T11:52:36.122Z,24.27
2023-05-05T11:53:36.113Z,24.37
2023-05-05T11:54:36.099Z,24.49
2023-05-05T11:55:36.092Z,24.60
2023-05-05T11:56:36.077Z,24.80
2023-05-05T11:57:36.066Z,24.83
2023-05-05T11:58:36.052Z,24.66
2023-05-05T11:59:36.040Z,24.64
2023-05-05T12:00:36.123Z,24.53
2023-05-05T12:01:36.020Z,24.53
2023-05-05T12:02:36.124Z,24.48
2023-05-05T12:03:36.360Z,24.49
2023-05-05T12:04:36.015Z,24.36
2023-05-05T12:05:36.959Z,24.31
2023-05-05T12:06:35.966Z,24.19
2023-05-05T12:07:35.984Z,24.11
2023-05-05T12:08:36.000Z,24.06
2023-05-05T12:09:35.948Z,24.26
2023-05-05T12:10:35.962Z,24.02
2023-05-05T12:11:35.896Z,23.93
2023-05-05T12:12:35.927Z,23.86
2023-05-05T12:13:35.866Z,23.63
2023-05-05T12:14:35.844Z,23.67
2023-05-05T12:15:35.838Z,23.63
2023-05-05T12:16:35.926Z,23.57
2023-05-05T12:17:35.849Z,23.59
2023-05-05T12:18:35.808Z,23.52
2023-05-05T12:19:35.785Z,23.52
2023-05-05T12:20:35.778Z,23.71
2023-05-05T12:21:35.757Z,23.79
2023-05-05T12:22:35.751Z,23.75
2023-05-05T12:23:35.725Z,23.86
2023-05-05T12:24:35.714Z,23.94
2023-05-05T12:25:35.716Z,23.72
2023-05-05T12:26:35.691Z,23.67
2023-05-05T12:27:35.668Z,23.64
2023-05-05T12:28:35.661Z,23.60
2023-05-05T12:29:35.667Z,23.59
2023-05-05T12:30:35.732Z,23.64
2023-05-05T12:31:35.656Z,23.57
2023-05-05T12:32:35.712Z,23.53
2023-05-05T12:33:35.601Z,23.44
2023-05-05T12:34:35.589Z,23.49
2023-05-05T12:35:35.624Z,23.50
2023-05-05T12:36:35.561Z,23.39
2023-05-05T12:37:35.547Z,23.52
2023-05-05T12:38:35.543Z,23.56
2023-05-05T12:39:35.530Z,23.49
2023-05-05T12:40:35.531Z,23.47
2023-05-05T12:41:35.508Z,23.41
2023-05-05T12:42:35.485Z,23.22
2023-05-05T12:43:35.481Z,23.12
2023-05-05T12:44:35.483Z,23.11
2023-05-05T12:45:35.530Z,22.94
2023-05-05T12:46:35.485Z,23.00
2023-05-05T12:47:35.435Z,22.94
2023-05-05T12:48:35.514Z,23.01
2023-05-05T12:49:35.394Z,23.03
2023-05-05T12:50:35.381Z,23.06
2023-05-05T12:51:35.380Z,23.12
2023-05-05T12:52:35.349Z,23.00
2023-05-05T12:53:35.359Z,23.12
2023-05-05T12:54:35.344Z,23.03